sensor_id;sensor_type;location;lat;lon;timestamp;temperature;humidity
30063;DHT22;16889;67.864;24.990;2023-07-22T00:02:38;9.60;99.90
30063;DHT22;16889;67.864;24.990;2023-07-22T00:07:24;9.60;99.90
30063;DHT22;16889;67.864;24.990;2023-07-22T00:12:10;9.60;99.90
30063;DHT22;16889;67.864;24.990;2023-07-22T00:16:56;9.60;99.90
30063;DHT22;16889;67.864;24.990;2023-07-22T00:21:42;9.60;99.90
30063;DHT22;16889;67.864;24.990;2023-07-22T00:26:28;9.50;99.90
30063;DHT22;16889;67.864;24.990;2023-07-22T00:31:14;9.60;99.90
30063;DHT22;16889;67.864;24.990;2023-07-22T00:36:00;9.60;99.90
30063;DHT22;16889;67.864;24.990;2023-07-22T00:40:46;9.50;99.90
30063;DHT22;16889;67.864;24.990;2023-07-22T00:45:32;9.50;99.90
30063;DHT22;16889;67.864;24.990;2023-07-22T00:50:18;9.50;99.90
30063;DHT22;16889;67.864;24.990;2023-07-22T00:55:05;9.50;99.90
30063;DHT22;16889;67.864;24.990;2023-07-22T00:59:51;9.50;99.90
30063;DHT22;16889;67.864;24.990;2023-07-22T01:04:37;9.40;99.90
30063;DHT22;16889;67.864;24.990;2023-07-22T01:09:23;9.40;99.90
30063;DHT22;16889;67.864;24.990;2023-07-22T01:14:09;9.30;99.90
30063;DHT22;16889;67.864;24.990;2023-07-22T01:18:56;9.20;99.90
30063;DHT22;16889;67.864;24.990;2023-07-22T01:23:42;9.20;99.90
30063;DHT22;16889;67.864;24.990;2023-07-22T01:28:28;9.20;99.90
30063;DHT22;16889;67.864;24.990;2023-07-22T01:33:14;9.20;99.90
30063;DHT22;16889;67.864;24.990;2023-07-22T01:38:00;9.30;99.90
30063;DHT22;16889;67.864;24.990;2023-07-22T01:42:46;9.30;99.90
30063;DHT22;16889;67.864;24.990;2023-07-22T01:47:32;9.30;99.90
30063;DHT22;16889;67.864;24.990;2023-07-22T01:52:18;9.20;99.90
30063;DHT22;16889;67.864;24.990;2023-07-22T01:57:04;9.10;99.90
30063;DHT22;16889;67.864;24.990;2023-07-22T02:01:50;9.00;99.90
30063;DHT22;16889;67.864;24.990;2023-07-22T02:06:37;9.00;99.90
30063;DHT22;16889;67.864;24.990;2023-07-22T02:11:23;9.10;99.90
30063;DHT22;16889;67.864;24.990;2023-07-22T02:16:09;9.10;99.90
30063;DHT22;16889;67.864;24.990;2023-07-22T02:20:58;9.10;99.90
30063;DHT22;16889;67.864;24.990;2023-07-22T02:25:48;9.10;99.90
30063;DHT22;16889;67.864;24.990;2023-07-22T02:30:37;9.10;99.90
30063;DHT22;16889;67.864;24.990;2023-07-22T02:35:23;9.20;99.90
30063;DHT22;16889;67.864;24.990;2023-07-22T02:40:13;9.20;99.90
30063;DHT22;16889;67.864;24.990;2023-07-22T02:44:59;9.20;99.90
30063;DHT22;16889;67.864;24.990;2023-07-22T02:49:45;9.20;99.90
30063;DHT22;16889;67.864;24.990;2023-07-22T02:54:31;9.20;99.90
30063;DHT22;16889;67.864;24.990;2023-07-22T02:59:17;9.10;99.90
30063;DHT22;16889;67.864;24.990;2023-07-22T03:04:04;9.20;99.90
30063;DHT22;16889;67.864;24.990;2023-07-22T03:08:50;9.20;99.90
30063;DHT22;16889;67.864;24.990;2023-07-22T03:13:37;9.10;99.90
30063;DHT22;16889;67.864;24.990;2023-07-22T03:18:23;9.10;99.90
30063;DHT22;16889;67.864;24.990;2023-07-22T03:23:09;9.10;99.90
30063;DHT22;16889;67.864;24.990;2023-07-22T03:27:55;9.10;99.90
30063;DHT22;16889;67.864;24.990;2023-07-22T03:32:43;9.10;99.90
30063;DHT22;16889;67.864;24.990;2023-07-22T03:37:29;9.10;99.90
30063;DHT22;16889;67.864;24.990;2023-07-22T03:42:15;9.10;99.90
30063;DHT22;16889;67.864;24.990;2023-07-22T03:47:01;9.10;99.90
30063;DHT22;16889;67.864;24.990;2023-07-22T03:51:48;9.10;99.90
30063;DHT22;16889;67.864;24.990;2023-07-22T03:56:34;9.10;99.90
30063;DHT22;16889;67.864;24.990;2023-07-22T04:01:20;9.20;99.90
30063;DHT22;16889;67.864;24.990;2023-07-22T04:06:06;9.40;99.90
30063;DHT22;16889;67.864;24.990;2023-07-22T04:10:53;9.30;99.90
30063;DHT22;16889;67.864;24.990;2023-07-22T04:15:39;9.30;99.90
30063;DHT22;16889;67.864;24.990;2023-07-22T04:20:27;9.30;99.90
30063;DHT22;16889;67.864;24.990;2023-07-22T04:25:13;9.30;99.90
30063;DHT22;16889;67.864;24.990;2023-07-22T04:30:00;9.30;99.90
30063;DHT22;16889;67.864;24.990;2023-07-22T04:34:46;9.40;99.90
30063;DHT22;16889;67.864;24.990;2023-07-22T04:39:32;9.40;99.90
30063;DHT22;16889;67.864;24.990;2023-07-22T04:44:19;9.50;99.90
30063;DHT22;16889;67.864;24.990;2023-07-22T04:49:05;9.50;99.90
30063;DHT22;16889;67.864;24.990;2023-07-22T04:53:51;9.50;99.90
30063;DHT22;16889;67.864;24.990;2023-07-22T04:58:37;9.40;99.90
30063;DHT22;16889;67.864;24.990;2023-07-22T05:03:24;9.40;99.90
30063;DHT22;16889;67.864;24.990;2023-07-22T05:08:12;9.50;99.90
30063;DHT22;16889;67.864;24.990;2023-07-22T05:12:58;9.50;99.90
30063;DHT22;16889;67.864;24.990;2023-07-22T05:17:44;9.60;99.90
30063;DHT22;16889;67.864;24.990;2023-07-22T05:22:30;9.60;99.90
30063;DHT22;16889;67.864;24.990;2023-07-22T05:27:19;9.70;99.90
30063;DHT22;16889;67.864;24.990;2023-07-22T05:32:05;9.70;99.90
30063;DHT22;16889;67.864;24.990;2023-07-22T05:36:52;9.80;99.90
30063;DHT22;16889;67.864;24.990;2023-07-22T05:41:38;9.80;99.90
30063;DHT22;16889;67.864;24.990;2023-07-22T05:46:23;9.90;99.90
30063;DHT22;16889;67.864;24.990;2023-07-22T05:51:10;10.00;99.90
30063;DHT22;16889;67.864;24.990;2023-07-22T05:55:56;9.80;99.90
30063;DHT22;16889;67.864;24.990;2023-07-22T06:00:41;9.80;99.90
30063;DHT22;16889;67.864;24.990;2023-07-22T06:05:27;9.90;99.90
30063;DHT22;16889;67.864;24.990;2023-07-22T06:10:14;10.00;99.90
30063;DHT22;16889;67.864;24.990;2023-07-22T06:15:00;10.00;99.90
30063;DHT22;16889;67.864;24.990;2023-07-22T06:19:46;10.10;99.90
30063;DHT22;16889;67.864;24.990;2023-07-22T06:24:32;10.20;99.90
30063;DHT22;16889;67.864;24.990;2023-07-22T06:29:19;10.20;99.90
30063;DHT22;16889;67.864;24.990;2023-07-22T06:34:05;10.20;99.90
30063;DHT22;16889;67.864;24.990;2023-07-22T06:38:52;10.20;99.90
30063;DHT22;16889;67.864;24.990;2023-07-22T06:43:38;10.30;99.90
30063;DHT22;16889;67.864;24.990;2023-07-22T06:48:23;10.30;99.90
30063;DHT22;16889;67.864;24.990;2023-07-22T06:53:09;10.40;99.90
30063;DHT22;16889;67.864;24.990;2023-07-22T06:57:56;10.40;99.90
30063;DHT22;16889;67.864;24.990;2023-07-22T07:02:43;10.20;99.90
30063;DHT22;16889;67.864;24.990;2023-07-22T07:07:28;10.20;99.90
30063;DHT22;16889;67.864;24.990;2023-07-22T07:12:14;10.20;99.90
30063;DHT22;16889;67.864;24.990;2023-07-22T07:17:01;10.20;99.90
30063;DHT22;16889;67.864;24.990;2023-07-22T07:21:47;10.20;99.90
30063;DHT22;16889;67.864;24.990;2023-07-22T07:26:33;10.30;99.90
30063;DHT22;16889;67.864;24.990;2023-07-22T07:31:20;10.50;99.90
30063;DHT22;16889;67.864;24.990;2023-07-22T07:36:06;10.60;99.90
30063;DHT22;16889;67.864;24.990;2023-07-22T07:41:12;10.80;99.90
30063;DHT22;16889;67.864;24.990;2023-07-22T07:46:21;10.50;99.90
30063;DHT22;16889;67.864;24.990;2023-07-22T07:51:07;10.30;99.90
30063;DHT22;16889;67.864;24.990;2023-07-22T07:55:53;10.40;99.90
30063;DHT22;16889;67.864;24.990;2023-07-22T08:00:39;10.40;99.90
30063;DHT22;16889;67.864;24.990;2023-07-22T08:05:25;10.40;99.90
30063;DHT22;16889;67.864;24.990;2023-07-22T08:10:11;10.40;99.90
30063;DHT22;16889;67.864;24.990;2023-07-22T08:14:58;10.40;99.90
30063;DHT22;16889;67.864;24.990;2023-07-22T08:19:44;10.60;99.90
30063;DHT22;16889;67.864;24.990;2023-07-22T08:24:30;10.80;99.90
30063;DHT22;16889;67.864;24.990;2023-07-22T08:29:16;10.80;99.90
30063;DHT22;16889;67.864;24.990;2023-07-22T08:34:02;10.80;99.90
30063;DHT22;16889;67.864;24.990;2023-07-22T08:38:48;10.80;99.90
30063;DHT22;16889;67.864;24.990;2023-07-22T08:43:36;10.60;99.90
30063;DHT22;16889;67.864;24.990;2023-07-22T08:48:27;10.70;99.90
30063;DHT22;16889;67.864;24.990;2023-07-22T08:53:15;10.80;99.90
30063;DHT22;16889;67.864;24.990;2023-07-22T08:58:01;10.70;99.90
30063;DHT22;16889;67.864;24.990;2023-07-22T09:02:48;10.80;99.90
30063;DHT22;16889;67.864;24.990;2023-07-22T09:07:36;10.80;99.90
30063;DHT22;16889;67.864;24.990;2023-07-22T09:12:24;10.70;99.90
30063;DHT22;16889;67.864;24.990;2023-07-22T09:17:11;10.80;99.90
30063;DHT22;16889;67.864;24.990;2023-07-22T09:21:57;10.80;99.90
30063;DHT22;16889;67.864;24.990;2023-07-22T09:26:44;10.80;99.90
30063;DHT22;16889;67.864;24.990;2023-07-22T09:31:30;10.80;99.90
30063;DHT22;16889;67.864;24.990;2023-07-22T09:36:16;10.80;99.90
30063;DHT22;16889;67.864;24.990;2023-07-22T09:41:02;10.80;99.90
30063;DHT22;16889;67.864;24.990;2023-07-22T09:45:48;10.90;99.90
30063;DHT22;16889;67.864;24.990;2023-07-22T09:50:36;11.00;99.90
30063;DHT22;16889;67.864;24.990;2023-07-22T09:55:24;11.10;99.90
30063;DHT22;16889;67.864;24.990;2023-07-22T10:00:12;11.10;99.90
30063;DHT22;16889;67.864;24.990;2023-07-22T10:05:01;11.10;99.90
30063;DHT22;16889;67.864;24.990;2023-07-22T10:09:48;11.10;99.90
30063;DHT22;16889;67.864;24.990;2023-07-22T10:14:35;11.10;99.90
30063;DHT22;16889;67.864;24.990;2023-07-22T10:19:22;11.20;99.90
30063;DHT22;16889;67.864;24.990;2023-07-22T10:24:09;11.20;99.90
30063;DHT22;16889;67.864;24.990;2023-07-22T10:28:55;11.30;99.90
30063;DHT22;16889;67.864;24.990;2023-07-22T10:33:42;11.40;99.90
30063;DHT22;16889;67.864;24.990;2023-07-22T10:38:28;11.50;99.90
30063;DHT22;16889;67.864;24.990;2023-07-22T10:43:23;11.60;99.90
30063;DHT22;16889;67.864;24.990;2023-07-22T10:48:12;11.70;99.90
30063;DHT22;16889;67.864;24.990;2023-07-22T10:52:57;11.70;99.90
30063;DHT22;16889;67.864;24.990;2023-07-22T10:57:54;11.80;99.90
30063;DHT22;16889;67.864;24.990;2023-07-22T11:02:41;11.90;99.90
30063;DHT22;16889;67.864;24.990;2023-07-22T11:07:44;11.90;99.90
30063;DHT22;16889;67.864;24.990;2023-07-22T11:12:30;11.90;99.90
30063;DHT22;16889;67.864;24.990;2023-07-22T11:17:27;11.80;99.90
30063;DHT22;16889;67.864;24.990;2023-07-22T11:22:16;11.70;99.90
30063;DHT22;16889;67.864;24.990;2023-07-22T11:27:04;11.60;99.90
30063;DHT22;16889;67.864;24.990;2023-07-22T11:31:51;11.70;99.90
30063;DHT22;16889;67.864;24.990;2023-07-22T11:36:37;11.70;99.90
30063;DHT22;16889;67.864;24.990;2023-07-22T11:41:24;11.70;99.90
30063;DHT22;16889;67.864;24.990;2023-07-22T11:46:10;11.70;99.90
30063;DHT22;16889;67.864;24.990;2023-07-22T11:51:00;11.80;99.90
30063;DHT22;16889;67.864;24.990;2023-07-22T11:55:47;11.90;99.90
30063;DHT22;16889;67.864;24.990;2023-07-22T12:00:33;11.90;99.90
30063;DHT22;16889;67.864;24.990;2023-07-22T12:05:21;12.00;99.90
30063;DHT22;16889;67.864;24.990;2023-07-22T12:10:07;12.00;99.90
30063;DHT22;16889;67.864;24.990;2023-07-22T12:15:02;11.90;99.90
30063;DHT22;16889;67.864;24.990;2023-07-22T12:19:53;12.00;99.90
30063;DHT22;16889;67.864;24.990;2023-07-22T12:24:39;12.10;99.90
30063;DHT22;16889;67.864;24.990;2023-07-22T12:29:25;11.90;99.90
30063;DHT22;16889;67.864;24.990;2023-07-22T12:34:11;11.80;99.90
30063;DHT22;16889;67.864;24.990;2023-07-22T12:38:57;11.80;99.90
30063;DHT22;16889;67.864;24.990;2023-07-22T12:43:43;11.70;99.90
30063;DHT22;16889;67.864;24.990;2023-07-22T12:48:29;11.70;99.90
30063;DHT22;16889;67.864;24.990;2023-07-22T12:53:15;11.70;99.90
30063;DHT22;16889;67.864;24.990;2023-07-22T12:58:01;11.80;99.90
30063;DHT22;16889;67.864;24.990;2023-07-22T13:02:48;11.90;99.90
30063;DHT22;16889;67.864;24.990;2023-07-22T13:07:34;12.00;99.90
30063;DHT22;16889;67.864;24.990;2023-07-22T13:12:20;12.10;99.90
30063;DHT22;16889;67.864;24.990;2023-07-22T13:17:06;12.20;99.90
30063;DHT22;16889;67.864;24.990;2023-07-22T13:21:52;12.20;99.90
30063;DHT22;16889;67.864;24.990;2023-07-22T13:26:37;12.20;99.90
30063;DHT22;16889;67.864;24.990;2023-07-22T13:31:23;12.30;99.90
30063;DHT22;16889;67.864;24.990;2023-07-22T13:36:11;12.40;99.90
30063;DHT22;16889;67.864;24.990;2023-07-22T13:40:57;12.40;99.90
30063;DHT22;16889;67.864;24.990;2023-07-22T13:45:43;12.20;99.90
30063;DHT22;16889;67.864;24.990;2023-07-22T13:50:29;12.10;99.90
30063;DHT22;16889;67.864;24.990;2023-07-22T13:55:16;12.10;99.90
30063;DHT22;16889;67.864;24.990;2023-07-22T14:00:02;12.10;99.90
30063;DHT22;16889;67.864;24.990;2023-07-22T14:04:55;12.20;99.90
30063;DHT22;16889;67.864;24.990;2023-07-22T14:09:41;12.10;99.90
30063;DHT22;16889;67.864;24.990;2023-07-22T14:14:27;12.10;99.90
30063;DHT22;16889;67.864;24.990;2023-07-22T14:19:14;12.00;99.90
30063;DHT22;16889;67.864;24.990;2023-07-22T14:24:00;11.90;99.90
30063;DHT22;16889;67.864;24.990;2023-07-22T14:28:46;11.90;99.90
30063;DHT22;16889;67.864;24.990;2023-07-22T14:33:32;12.00;99.90
30063;DHT22;16889;67.864;24.990;2023-07-22T14:38:17;12.00;99.90
30063;DHT22;16889;67.864;24.990;2023-07-22T14:43:03;12.10;99.90
30063;DHT22;16889;67.864;24.990;2023-07-22T14:47:49;12.10;99.90
30063;DHT22;16889;67.864;24.990;2023-07-22T14:52:35;12.10;99.90
30063;DHT22;16889;67.864;24.990;2023-07-22T14:57:21;12.20;99.90
30063;DHT22;16889;67.864;24.990;2023-07-22T15:02:07;12.20;99.90
30063;DHT22;16889;67.864;24.990;2023-07-22T15:06:53;12.30;99.90
30063;DHT22;16889;67.864;24.990;2023-07-22T15:11:39;12.30;99.90
30063;DHT22;16889;67.864;24.990;2023-07-22T15:16:25;12.40;99.90
30063;DHT22;16889;67.864;24.990;2023-07-22T15:21:12;12.30;99.90
30063;DHT22;16889;67.864;24.990;2023-07-22T15:25:58;12.40;99.90
30063;DHT22;16889;67.864;24.990;2023-07-22T15:30:44;12.40;99.90
30063;DHT22;16889;67.864;24.990;2023-07-22T15:35:30;12.40;99.90
30063;DHT22;16889;67.864;24.990;2023-07-22T15:40:16;12.40;99.90
30063;DHT22;16889;67.864;24.990;2023-07-22T15:45:04;12.40;99.90
30063;DHT22;16889;67.864;24.990;2023-07-22T15:49:50;12.50;99.90
30063;DHT22;16889;67.864;24.990;2023-07-22T15:54:36;12.50;99.90
30063;DHT22;16889;67.864;24.990;2023-07-22T15:59:22;12.50;99.90
30063;DHT22;16889;67.864;24.990;2023-07-22T16:04:08;12.50;99.90
30063;DHT22;16889;67.864;24.990;2023-07-22T16:08:54;12.50;99.90
30063;DHT22;16889;67.864;24.990;2023-07-22T16:13:40;12.60;99.90
30063;DHT22;16889;67.864;24.990;2023-07-22T16:18:26;12.60;99.90
30063;DHT22;16889;67.864;24.990;2023-07-22T16:23:12;12.60;99.90
30063;DHT22;16889;67.864;24.990;2023-07-22T16:27:58;12.70;99.90
30063;DHT22;16889;67.864;24.990;2023-07-22T16:32:44;12.70;99.90
30063;DHT22;16889;67.864;24.990;2023-07-22T16:37:30;12.80;99.90
30063;DHT22;16889;67.864;24.990;2023-07-22T16:42:16;12.80;99.90
30063;DHT22;16889;67.864;24.990;2023-07-22T16:47:02;12.90;99.90
30063;DHT22;16889;67.864;24.990;2023-07-22T16:51:48;12.90;99.90
30063;DHT22;16889;67.864;24.990;2023-07-22T16:56:34;13.00;99.90
30063;DHT22;16889;67.864;24.990;2023-07-22T17:01:20;12.90;99.90
30063;DHT22;16889;67.864;24.990;2023-07-22T17:06:06;12.90;99.90
30063;DHT22;16889;67.864;24.990;2023-07-22T17:10:52;12.90;99.90
30063;DHT22;16889;67.864;24.990;2023-07-22T17:15:38;13.00;99.90
30063;DHT22;16889;67.864;24.990;2023-07-22T17:20:24;13.00;99.90
30063;DHT22;16889;67.864;24.990;2023-07-22T17:25:10;12.90;99.90
30063;DHT22;16889;67.864;24.990;2023-07-22T17:29:56;12.70;99.90
30063;DHT22;16889;67.864;24.990;2023-07-22T17:34:42;12.80;99.90
30063;DHT22;16889;67.864;24.990;2023-07-22T17:39:29;12.90;99.90
30063;DHT22;16889;67.864;24.990;2023-07-22T17:44:15;12.90;99.90
30063;DHT22;16889;67.864;24.990;2023-07-22T17:49:03;12.70;99.90
30063;DHT22;16889;67.864;24.990;2023-07-22T17:53:49;12.70;99.90
30063;DHT22;16889;67.864;24.990;2023-07-22T17:58:35;12.70;99.90
30063;DHT22;16889;67.864;24.990;2023-07-22T18:03:21;12.70;99.90
30063;DHT22;16889;67.864;24.990;2023-07-22T18:08:07;12.70;99.90
30063;DHT22;16889;67.864;24.990;2023-07-22T18:12:52;12.70;99.90
30063;DHT22;16889;67.864;24.990;2023-07-22T18:17:38;12.60;99.90
30063;DHT22;16889;67.864;24.990;2023-07-22T18:22:24;12.60;99.90
30063;DHT22;16889;67.864;24.990;2023-07-22T18:27:10;12.40;99.90
30063;DHT22;16889;67.864;24.990;2023-07-22T18:31:56;12.40;99.90
30063;DHT22;16889;67.864;24.990;2023-07-22T18:36:42;12.40;99.90
30063;DHT22;16889;67.864;24.990;2023-07-22T18:41:28;12.40;99.90
30063;DHT22;16889;67.864;24.990;2023-07-22T18:46:21;12.30;99.90
30063;DHT22;16889;67.864;24.990;2023-07-22T18:51:08;12.30;99.90
30063;DHT22;16889;67.864;24.990;2023-07-22T18:55:54;12.20;99.90
30063;DHT22;16889;67.864;24.990;2023-07-22T19:00:40;12.30;99.90
30063;DHT22;16889;67.864;24.990;2023-07-22T19:05:25;12.20;99.90
30063;DHT22;16889;67.864;24.990;2023-07-22T19:10:11;12.00;99.90
30063;DHT22;16889;67.864;24.990;2023-07-22T19:14:57;12.00;99.90
30063;DHT22;16889;67.864;24.990;2023-07-22T19:19:43;12.00;99.90
30063;DHT22;16889;67.864;24.990;2023-07-22T19:24:29;12.00;99.90
30063;DHT22;16889;67.864;24.990;2023-07-22T19:29:15;11.90;99.90
30063;DHT22;16889;67.864;24.990;2023-07-22T19:34:01;11.90;99.90
30063;DHT22;16889;67.864;24.990;2023-07-22T19:38:47;11.90;99.90
30063;DHT22;16889;67.864;24.990;2023-07-22T19:43:34;11.80;99.90
30063;DHT22;16889;67.864;24.990;2023-07-22T19:48:20;11.80;99.90
30063;DHT22;16889;67.864;24.990;2023-07-22T19:53:06;11.80;99.90
30063;DHT22;16889;67.864;24.990;2023-07-22T19:57:52;11.80;99.90
30063;DHT22;16889;67.864;24.990;2023-07-22T20:02:38;11.70;99.90
30063;DHT22;16889;67.864;24.990;2023-07-22T20:07:24;11.80;99.90
30063;DHT22;16889;67.864;24.990;2023-07-22T20:12:10;11.80;99.90
30063;DHT22;16889;67.864;24.990;2023-07-22T20:16:56;11.80;99.90
30063;DHT22;16889;67.864;24.990;2023-07-22T20:21:42;11.70;99.90
30063;DHT22;16889;67.864;24.990;2023-07-22T20:26:28;11.50;99.90
30063;DHT22;16889;67.864;24.990;2023-07-22T20:31:14;11.60;99.90
30063;DHT22;16889;67.864;24.990;2023-07-22T20:36:00;11.60;99.90
30063;DHT22;16889;67.864;24.990;2023-07-22T20:40:46;11.60;99.90
30063;DHT22;16889;67.864;24.990;2023-07-22T20:45:32;11.50;99.90
30063;DHT22;16889;67.864;24.990;2023-07-22T20:50:18;11.60;99.90
30063;DHT22;16889;67.864;24.990;2023-07-22T20:55:05;11.50;99.90
30063;DHT22;16889;67.864;24.990;2023-07-22T20:59:56;11.50;99.90
30063;DHT22;16889;67.864;24.990;2023-07-22T21:04:43;11.30;99.90
30063;DHT22;16889;67.864;24.990;2023-07-22T21:09:30;11.30;99.90
30063;DHT22;16889;67.864;24.990;2023-07-22T21:14:16;11.20;99.90
30063;DHT22;16889;67.864;24.990;2023-07-22T21:19:02;11.10;99.90
30063;DHT22;16889;67.864;24.990;2023-07-22T21:23:48;11.10;99.90
30063;DHT22;16889;67.864;24.990;2023-07-22T21:28:34;11.10;99.90
30063;DHT22;16889;67.864;24.990;2023-07-22T21:33:21;11.10;99.90
30063;DHT22;16889;67.864;24.990;2023-07-22T21:38:07;11.10;99.90
30063;DHT22;16889;67.864;24.990;2023-07-22T21:42:53;11.00;99.90
30063;DHT22;16889;67.864;24.990;2023-07-22T21:47:39;10.90;99.90
30063;DHT22;16889;67.864;24.990;2023-07-22T21:52:25;10.90;99.90
30063;DHT22;16889;67.864;24.990;2023-07-22T21:57:11;10.90;99.90
30063;DHT22;16889;67.864;24.990;2023-07-22T22:01:57;10.90;99.90
30063;DHT22;16889;67.864;24.990;2023-07-22T22:06:43;10.90;99.90
30063;DHT22;16889;67.864;24.990;2023-07-22T22:11:31;10.90;99.90
30063;DHT22;16889;67.864;24.990;2023-07-22T22:16:17;10.80;99.90
30063;DHT22;16889;67.864;24.990;2023-07-22T22:21:03;10.80;99.90
30063;DHT22;16889;67.864;24.990;2023-07-22T22:25:49;10.70;99.90
30063;DHT22;16889;67.864;24.990;2023-07-22T22:30:35;10.60;99.90
30063;DHT22;16889;67.864;24.990;2023-07-22T22:35:21;10.50;99.90
30063;DHT22;16889;67.864;24.990;2023-07-22T22:40:08;10.50;99.90
30063;DHT22;16889;67.864;24.990;2023-07-22T22:44:54;10.50;99.90
30063;DHT22;16889;67.864;24.990;2023-07-22T22:49:40;10.60;99.90
30063;DHT22;16889;67.864;24.990;2023-07-22T22:54:25;10.70;99.90
30063;DHT22;16889;67.864;24.990;2023-07-22T22:59:11;10.70;99.90
30063;DHT22;16889;67.864;24.990;2023-07-22T23:03:57;10.60;99.90
30063;DHT22;16889;67.864;24.990;2023-07-22T23:08:44;10.60;99.90
30063;DHT22;16889;67.864;24.990;2023-07-22T23:13:30;10.60;99.90
30063;DHT22;16889;67.864;24.990;2023-07-22T23:18:15;10.50;99.90
30063;DHT22;16889;67.864;24.990;2023-07-22T23:23:01;10.60;99.90
30063;DHT22;16889;67.864;24.990;2023-07-22T23:27:47;10.50;99.90
30063;DHT22;16889;67.864;24.990;2023-07-22T23:32:34;10.50;99.90
30063;DHT22;16889;67.864;24.990;2023-07-22T23:37:20;10.40;99.90
30063;DHT22;16889;67.864;24.990;2023-07-22T23:42:06;10.50;99.90
30063;DHT22;16889;67.864;24.990;2023-07-22T23:46:52;10.40;99.90
30063;DHT22;16889;67.864;24.990;2023-07-22T23:51:38;10.40;99.90
30063;DHT22;16889;67.864;24.990;2023-07-22T23:56:24;10.40;99.90
